Iberica Hav — C6YI3 — position and weather

sailwx.info

Track history (hours):
 
Tides and Currents Weather Stations Pressure Air Temp Water Temp Dewpoint Dewpoint Depression Visibility Wind Speed Wind Dir Waves Ship Positions

Iberica Hav

Last reported at 2016-Sep-29 16:16 UTC. Time now 2016-Sep-29 18:45 UTC.
Position N 54°09' E 012°07'.

Length 88 m; draft 3.2 m.

Type: Cargo ship. MMSI: 311034400.

Date/timePositionNaut miles runAvg speedWind from/ knotsBaromVisibWave heightAir tempDewpointWater temp
2016-Sep-29 16:16N 54°09' E 012°07'0 0.2
2016-Sep-29 15:24N 54°09' E 012°07'0 0.0
2016-Sep-29 13:33N 54°09' E 012°07'0 0.0
2016-Sep-29 08:12N 54°09' E 012°07'21 2.8
2016-Sep-29 00:33N 54°25' E 011°42'20 6.7
2016-Sep-28 21:33N 54°34' E 011°11'16 8.0
2016-Sep-28 19:33N 54°34' E 010°44'21 6.9
2016-Sep-28 16:33N 54°24' E 010°12'3 3.2
2016-Sep-28 15:33N 54°22' E 010°08'48 6.8
2016-Sep-28 08:34N 53°53' E 009°04'58 9.7
2016-Sep-28 02:33N 53°53' E 007°25'9 8.5
2016-Sep-28 01:32N 53°51' E 007°11'17 8.4
2016-Sep-27 23:33N 53°47' E 006°44'36 8.9
2016-Sep-27 19:33N 53°37' E 005°46'62 9.7
2016-Sep-27 13:11N 53°00' E 004°23'101 8.0
2016-Sep-27 00:33N 51°22' E 003°45'5 1.1
2016-Sep-26 20:25N 51°19' E 003°50'0 0.0
2016-Sep-26 19:33N 51°19' E 003°50'0 0.0
2016-Sep-26 15:18N 51°19' E 003°50'0 0.0
2016-Sep-26 13:33N 51°19' E 003°50'0 0.0
2016-Sep-26 11:33N 51°19' E 003°50'0 0.0
2016-Sep-26 08:33N 51°19' E 003°50'0 0.0
2016-Sep-26 02:33N 51°19' E 003°50'0 0.0
2016-Sep-26 01:33N 51°19' E 003°50'0 0.0
2016-Sep-26 00:30N 51°19' E 003°50'0 0.0
2016-Sep-25 21:24N 51°19' E 003°50'0 0.0
2016-Sep-25 17:27N 51°19' E 003°50'0 0.0
2016-Sep-25 16:33N 51°19' E 003°50'0 0.0
2016-Sep-25 15:33N 51°19' E 003°50'0 0.0
2016-Sep-25 14:33N 51°19' E 003°50'0 0.0
2016-Sep-25 12:27N 51°19' E 003°50'0 0.0
2016-Sep-25 11:30N 51°19' E 003°50'0 0.0
2016-Sep-25 10:27N 51°19' E 003°50'0 0.0
2016-Sep-25 09:18N 51°19' E 003°50'0 0.0
2016-Sep-25 07:33N 51°19' E 003°50'0 0.0
2016-Sep-25 04:33N 51°19' E 003°50'0 0.0
2016-Sep-25 00:34N 51°19' E 003°50'0 0.0
2016-Sep-24 22:33N 51°19' E 003°50'0 0.0
2016-Sep-24 21:33N 51°19' E 003°50'0 0.0
2016-Sep-24 19:33N 51°19' E 003°50'0 0.0
2016-Sep-24 18:33N 51°19' E 003°50'0 0.0
2016-Sep-24 17:33N 51°19' E 003°50'0 0.0
2016-Sep-24 16:33N 51°19' E 003°50'0 0.0
2016-Sep-24 14:33N 51°19' E 003°50'0 0.0
2016-Sep-24 12:33N 51°19' E 003°50'0 0.0
2016-Sep-24 10:33N 51°19' E 003°50'0 0.0
2016-Sep-24 09:33N 51°19' E 003°50'29 4.9
2016-Sep-24 03:33N 51°40' E 003°18'7 6.8
2016-Sep-24 02:30N 51°47' E 003°18'24 3.4
2016-Sep-23 19:33N 52°03' E 003°47'18 8.8
2016-Sep-23 17:33N 51°56' E 004°13'9 9.2
2016-Sep-23 16:33N 51°54' E 004°28'1 0.7
2016-Sep-23 15:33N 51°54' E 004°29'0 0.0
2016-Sep-23 13:33N 51°54' E 004°29'0 0.0
2016-Sep-23 09:33N 51°54' E 004°29'17 5.6
2016-Sep-23 06:33N 51°59' E 004°03'10 3.2
2016-Sep-23 03:23N 51°56' E 003°48'0 0.0
2016-Sep-23 02:17N 51°56' E 003°47'0 0.0
2016-Sep-23 01:32N 51°56' E 003°47'0 0.0
2016-Sep-23 00:29N 51°56' E 003°47'0 0.0
2016-Sep-22 23:32N 51°56' E 003°47'104 5.5
2016-Sep-22 04:33N 51°03' E 001°23'10 0.2
2016-Sep-20 13:30N 50°56' E 001°12'3110.6
2016-Sep-20 10:33N 51°17' E 001°49'19 9.5
2016-Sep-20 08:33N 51°21' E 002°19'1111.2
2016-Sep-20 07:33N 51°23' E 002°36'1010.5
2016-Sep-20 06:33N 51°22' E 002°53'13 3.2
2016-Sep-20 02:31N 51°19' E 003°13'0 0.0
2016-Sep-19 23:31N 51°19' E 003°13'0 0.0
2016-Sep-19 19:31N 51°19' E 003°13'0 0.0
2016-Sep-19 18:31N 51°19' E 003°13'0 0.0
2016-Sep-19 16:28N 51°19' E 003°13'  
Track history (hours):
 
Tides and Currents Weather Stations Pressure Air Temp Water Temp Dewpoint Dewpoint Depression Visibility Wind Speed Wind Dir Waves Ship Positions

Iberica Hav

Last reported at 2016-Sep-29 16:16 UTC. Time now 2016-Sep-29 18:45 UTC.
Position N 54°09' E 012°07'.

Length 88 m; draft 3.2 m.

Type: Cargo ship. MMSI: 311034400.

Date/timePositionNaut miles runAvg speedWind from/ knotsBaromVisibWave heightAir tempDewpointWater temp
2016-Sep-29 16:16N 54°09' E 012°07'0 0.2
2016-Sep-29 15:24N 54°09' E 012°07'0 0.0
2016-Sep-29 13:33N 54°09' E 012°07'0 0.0
2016-Sep-29 08:12N 54°09' E 012°07'21 2.8
2016-Sep-29 00:33N 54°25' E 011°42'20 6.7
2016-Sep-28 21:33N 54°34' E 011°11'16 8.0
2016-Sep-28 19:33N 54°34' E 010°44'21 6.9
2016-Sep-28 16:33N 54°24' E 010°12'3 3.2
2016-Sep-28 15:33N 54°22' E 010°08'48 6.8
2016-Sep-28 08:34N 53°53' E 009°04'58 9.7
2016-Sep-28 02:33N 53°53' E 007°25'9 8.5
2016-Sep-28 01:32N 53°51' E 007°11'17 8.4
2016-Sep-27 23:33N 53°47' E 006°44'36 8.9
2016-Sep-27 19:33N 53°37' E 005°46'62 9.7
2016-Sep-27 13:11N 53°00' E 004°23'101 8.0
2016-Sep-27 00:33N 51°22' E 003°45'5 1.1
2016-Sep-26 20:25N 51°19' E 003°50'0 0.0
2016-Sep-26 19:33N 51°19' E 003°50'0 0.0
2016-Sep-26 15:18N 51°19' E 003°50'0 0.0
2016-Sep-26 13:33N 51°19' E 003°50'0 0.0
2016-Sep-26 11:33N 51°19' E 003°50'0 0.0
2016-Sep-26 08:33N 51°19' E 003°50'0 0.0
2016-Sep-26 02:33N 51°19' E 003°50'0 0.0
2016-Sep-26 01:33N 51°19' E 003°50'0 0.0
2016-Sep-26 00:30N 51°19' E 003°50'0 0.0
2016-Sep-25 21:24N 51°19' E 003°50'0 0.0
2016-Sep-25 17:27N 51°19' E 003°50'0 0.0
2016-Sep-25 16:33N 51°19' E 003°50'0 0.0
2016-Sep-25 15:33N 51°19' E 003°50'0 0.0
2016-Sep-25 14:33N 51°19' E 003°50'0 0.0
2016-Sep-25 12:27N 51°19' E 003°50'0 0.0
2016-Sep-25 11:30N 51°19' E 003°50'0 0.0
2016-Sep-25 10:27N 51°19' E 003°50'0 0.0
2016-Sep-25 09:18N 51°19' E 003°50'0 0.0
2016-Sep-25 07:33N 51°19' E 003°50'0 0.0
2016-Sep-25 04:33N 51°19' E 003°50'0 0.0
2016-Sep-25 00:34N 51°19' E 003°50'0 0.0
2016-Sep-24 22:33N 51°19' E 003°50'0 0.0
2016-Sep-24 21:33N 51°19' E 003°50'0 0.0
2016-Sep-24 19:33N 51°19' E 003°50'0 0.0
2016-Sep-24 18:33N 51°19' E 003°50'0 0.0
2016-Sep-24 17:33N 51°19' E 003°50'0 0.0
2016-Sep-24 16:33N 51°19' E 003°50'0 0.0
2016-Sep-24 14:33N 51°19' E 003°50'0 0.0
2016-Sep-24 12:33N 51°19' E 003°50'0 0.0
2016-Sep-24 10:33N 51°19' E 003°50'0 0.0
2016-Sep-24 09:33N 51°19' E 003°50'29 4.9
2016-Sep-24 03:33N 51°40' E 003°18'7 6.8
2016-Sep-24 02:30N 51°47' E 003°18'24 3.4
2016-Sep-23 19:33N 52°03' E 003°47'18 8.8
2016-Sep-23 17:33N 51°56' E 004°13'9 9.2
2016-Sep-23 16:33N 51°54' E 004°28'1 0.7
2016-Sep-23 15:33N 51°54' E 004°29'0 0.0
2016-Sep-23 13:33N 51°54' E 004°29'0 0.0
2016-Sep-23 09:33N 51°54' E 004°29'17 5.6
2016-Sep-23 06:33N 51°59' E 004°03'10 3.2
2016-Sep-23 03:23N 51°56' E 003°48'0 0.0
2016-Sep-23 02:17N 51°56' E 003°47'0 0.0
2016-Sep-23 01:32N 51°56' E 003°47'0 0.0
2016-Sep-23 00:29N 51°56' E 003°47'0 0.0
2016-Sep-22 23:32N 51°56' E 003°47'104 5.5
2016-Sep-22 04:33N 51°03' E 001°23'10 0.2
2016-Sep-20 13:30N 50°56' E 001°12'3110.6
2016-Sep-20 10:33N 51°17' E 001°49'19 9.5
2016-Sep-20 08:33N 51°21' E 002°19'1111.2
2016-Sep-20 07:33N 51°23' E 002°36'1010.5
2016-Sep-20 06:33N 51°22' E 002°53'13 3.2
2016-Sep-20 02:31N 51°19' E 003°13'0 0.0
2016-Sep-19 23:31N 51°19' E 003°13'0 0.0
2016-Sep-19 19:31N 51°19' E 003°13'0 0.0
2016-Sep-19 18:31N 51°19' E 003°13'0 0.0
2016-Sep-19 16:28N 51°19' E 003°13'  

Dump ship's entire track history